createdAt,value
2017-11-19T00:15:48.568Z,3.59
2017-11-19T00:33:11.426Z,3.58
2017-11-19T00:36:49.076Z,3.54
2017-11-19T00:40:00.360Z,3.53
2017-11-19T00:53:17.396Z,3.52
2017-11-19T00:56:28.213Z,3.47
2017-11-19T00:59:44.382Z,3.48
2017-11-19T01:13:13.254Z,3.59
2017-11-19T01:29:44.564Z,3.56
2017-11-19T01:36:37.551Z,3.52
2017-11-19T01:43:13.699Z,3.29
2017-11-19T01:49:54.548Z,3.34
2017-11-19T02:03:22.190Z,3.45
2017-11-19T02:09:59.558Z,3.44
2017-11-19T02:23:39.782Z,3.41
2017-11-19T02:47:00.029Z,3.08
2017-11-19T02:53:38.896Z,3.09
2017-11-19T03:00:08.698Z,3.12
2017-11-19T03:17:02.270Z,3.13
2017-11-19T03:19:36.362Z,3.06
2017-11-19T03:22:32.945Z,3.05
2017-11-19T03:25:49.361Z,3.10
2017-11-19T03:32:27.763Z,3.14
2017-11-19T03:46:07.356Z,3.14
2017-11-19T03:48:46.054Z,3.23
2017-11-19T04:01:48.633Z,3.08
2017-11-19T04:04:35.871Z,3.09
2017-11-19T04:07:25.075Z,3.01
2017-11-19T04:10:14.412Z,3.03
2017-11-19T04:13:07.813Z,3.05
2017-11-19T04:16:00.537Z,3.03
2017-11-19T04:18:42.295Z,3.03
2017-11-19T04:21:30.502Z,3.05
2017-11-19T04:24:04.697Z,3.06
2017-11-19T04:26:39.141Z,3.11
2017-11-19T04:29:14.348Z,3.07
2017-11-19T04:31:47.737Z,3.18
2017-11-19T04:34:21.089Z,3.15
2017-11-19T04:36:52.762Z,3.16
2017-11-19T04:39:28.370Z,3.19
2017-11-19T04:42:02.315Z,3.19
2017-11-19T04:44:36.294Z,3.31
2017-11-19T04:47:08.780Z,3.26
2017-11-19T04:49:42.492Z,3.22
2017-11-19T04:52:16.942Z,3.22
2017-11-19T04:54:51.280Z,3.35
2017-11-19T04:57:25.679Z,3.30
2017-11-19T04:59:59.284Z,3.25
2017-11-19T05:02:32.735Z,3.22
2017-11-19T05:05:03.811Z,3.22
2017-11-19T05:07:38.667Z,3.13
2017-11-19T05:10:12.344Z,3.18
2017-11-19T05:12:47.783Z,3.21
2017-11-19T05:15:21.072Z,3.28
2017-11-19T05:17:55.926Z,3.31
2017-11-19T05:20:29.145Z,3.18
2017-11-19T05:23:03.941Z,3.08
2017-11-19T05:25:38.878Z,2.97
2017-11-19T05:28:13.669Z,3.13
2017-11-19T05:30:46.806Z,3.07
2017-11-19T05:33:19.134Z,3.10
2017-11-19T05:35:53.435Z,3.14
2017-11-19T05:38:26.827Z,3.18
2017-11-19T05:41:01.779Z,3.14
2017-11-19T05:43:37.227Z,3.07
2017-11-19T05:46:09.969Z,3.22
2017-11-19T05:48:40.693Z,3.19
2017-11-19T05:51:08.193Z,2.99
2017-11-19T05:53:44.004Z,2.93
2017-11-19T05:56:18.795Z,2.91
2017-11-19T05:58:53.255Z,2.96
2017-11-19T06:01:25.303Z,2.88
2017-11-19T06:03:58.872Z,2.85
2017-11-19T06:06:31.412Z,2.77
2017-11-19T06:09:04.421Z,2.90
2017-11-19T06:11:33.931Z,2.94
2017-11-19T06:14:01.454Z,2.99
2017-11-19T06:16:29.567Z,3.01
2017-11-19T06:18:57.057Z,3.04
2017-11-19T06:21:24.549Z,3.02
2017-11-19T06:23:52.056Z,2.97
2017-11-19T06:26:19.543Z,3.09
2017-11-19T06:28:47.053Z,3.21
2017-11-19T06:31:14.582Z,3.08
2017-11-19T06:33:42.084Z,3.08
2017-11-19T06:36:09.575Z,3.20
2017-11-19T06:38:37.058Z,3.11
2017-11-19T06:41:04.587Z,3.25
2017-11-19T06:43:38.493Z,3.28
2017-11-19T06:46:06.048Z,3.34
2017-11-19T06:48:40.559Z,3.36
2017-11-19T06:51:08.079Z,3.37
2017-11-19T06:53:36.324Z,3.47
2017-11-19T06:56:05.448Z,3.54
2017-11-19T06:58:32.942Z,3.39
2017-11-19T07:01:04.510Z,3.41
2017-11-19T07:03:32.015Z,3.63
2017-11-19T07:06:05.457Z,3.60
2017-11-19T07:08:32.954Z,3.51
2017-11-19T07:11:02.322Z,3.40
2017-11-19T07:13:36.229Z,3.44
2017-11-19T07:16:03.725Z,3.77
2017-11-19T07:18:37.448Z,3.80
2017-11-19T07:21:11.349Z,3.55
2017-11-19T07:23:38.848Z,3.71
2017-11-19T07:26:12.334Z,3.40
2017-11-19T07:28:39.844Z,3.29
2017-11-19T07:31:12.228Z,3.36
2017-11-19T07:33:44.620Z,3.28
2017-11-19T07:36:12.171Z,3.15
2017-11-19T07:38:46.108Z,3.31
2017-11-19T07:41:14.790Z,3.49
2017-11-19T07:43:46.827Z,3.60
2017-11-19T07:46:20.217Z,3.32
2017-11-19T07:48:47.721Z,3.16
2017-11-19T07:51:25.098Z,2.89
2017-11-19T07:53:56.682Z,2.84
2017-11-19T07:56:24.197Z,2.96
2017-11-19T07:58:57.371Z,3.45
2017-11-19T08:01:30.152Z,3.35
2017-11-19T08:04:00.553Z,3.07
2017-11-19T08:06:33.758Z,3.14
2017-11-19T08:09:08.423Z,3.19
2017-11-19T08:11:43.120Z,3.22
2017-11-19T08:14:17.664Z,3.18
2017-11-19T08:16:52.320Z,3.27
2017-11-19T08:19:24.764Z,3.27
2017-11-19T08:21:59.408Z,3.15
2017-11-19T08:24:34.271Z,3.38
2017-11-19T08:27:09.526Z,3.58
2017-11-19T08:29:43.280Z,4.44
2017-11-19T08:32:16.438Z,4.86
2017-11-19T08:34:48.022Z,4.63
2017-11-19T08:37:22.585Z,4.01
2017-11-19T08:39:58.863Z,4.15
2017-11-19T08:42:32.912Z,4.38
2017-11-19T08:45:06.325Z,4.53
2017-11-19T08:47:40.119Z,3.88
2017-11-19T08:50:13.958Z,3.73
2017-11-19T08:52:48.865Z,3.69
2017-11-19T08:55:24.423Z,4.22
2017-11-19T08:57:58.363Z,4.03
2017-11-19T09:00:31.875Z,4.13
2017-11-19T09:03:04.917Z,4.20
2017-11-19T09:05:36.957Z,4.28
2017-11-19T09:08:11.531Z,4.57
2017-11-19T09:10:46.983Z,4.52
2017-11-19T09:13:21.022Z,4.24
2017-11-19T09:15:53.295Z,4.01
2017-11-19T09:18:22.571Z,4.41
2017-11-19T09:20:55.504Z,4.16
2017-11-19T09:23:29.363Z,4.53
2017-11-19T09:26:03.996Z,4.25
2017-11-19T09:28:38.129Z,4.26
2017-11-19T09:31:12.151Z,4.40
2017-11-19T09:33:45.123Z,3.98
2017-11-19T09:36:43.369Z,4.22
2017-11-19T09:39:36.207Z,4.34
2017-11-19T09:42:13.376Z,4.16
2017-11-19T09:44:48.327Z,4.48
2017-11-19T09:47:23.199Z,4.69
2017-11-19T09:49:56.085Z,4.52
2017-11-19T09:52:26.769Z,4.59
2017-11-19T09:54:58.247Z,4.94
2017-11-19T09:57:30.715Z,4.73
2017-11-19T10:00:05.567Z,4.84
2017-11-19T10:02:39.270Z,5.21
2017-11-19T10:05:10.161Z,5.35
2017-11-19T10:07:44.498Z,4.55
2017-11-19T10:10:20.118Z,4.49
2017-11-19T10:12:53.753Z,4.63
2017-11-19T10:15:33.898Z,4.81
2017-11-19T10:18:22.843Z,4.69
2017-11-19T10:21:04.991Z,5.00
2017-11-19T10:23:42.208Z,5.02
2017-11-19T10:26:09.737Z,5.05
2017-11-19T10:28:40.993Z,6.93
2017-11-19T10:31:08.503Z,5.77
2017-11-19T10:33:37.436Z,5.28
2017-11-19T10:36:04.935Z,5.39
2017-11-19T10:38:32.459Z,5.45
2017-11-19T10:41:00.039Z,5.56
2017-11-19T10:43:27.565Z,6.36
2017-11-19T10:45:55.071Z,9.87
2017-11-19T10:48:22.584Z,11.30
2017-11-19T10:50:50.091Z,10.64
2017-11-19T10:53:17.600Z,15.76
2017-11-19T10:55:45.116Z,14.79
2017-11-19T10:58:12.640Z,12.63
2017-11-19T11:00:41.100Z,10.32
2017-11-19T11:03:08.607Z,12.24
2017-11-19T11:05:39.126Z,11.11
2017-11-19T11:08:06.645Z,14.16
2017-11-19T11:10:35.082Z,11.99
2017-11-19T11:13:02.594Z,14.74
2017-11-19T11:15:32.575Z,13.23
2017-11-19T11:18:00.084Z,13.10
2017-11-19T11:20:30.030Z,10.74
2017-11-19T11:22:57.552Z,8.97
2017-11-19T11:25:25.679Z,8.24
2017-11-19T11:27:53.202Z,7.29
2017-11-19T11:30:21.014Z,6.78
2017-11-19T11:32:48.512Z,6.40
2017-11-19T11:35:16.037Z,6.36
2017-11-19T11:37:43.572Z,6.61
2017-11-19T11:40:11.107Z,11.36
2017-11-19T11:42:38.812Z,13.15
2017-11-19T11:45:06.330Z,15.43
2017-11-19T11:47:34.655Z,13.40
2017-11-19T11:50:02.174Z,14.87
2017-11-19T11:52:33.050Z,14.36
2017-11-19T11:55:00.577Z,13.55
2017-11-19T11:57:28.127Z,14.64
2017-11-19T11:59:55.653Z,14.55
2017-11-19T12:02:26.353Z,15.48
2017-11-19T12:04:53.888Z,12.89
2017-11-19T12:07:22.365Z,10.37
2017-11-19T12:09:49.893Z,10.39
2017-11-19T12:12:17.432Z,9.63
2017-11-19T12:14:45.230Z,8.98
2017-11-19T12:17:12.820Z,9.77
2017-11-19T12:19:41.185Z,9.91
2017-11-19T12:22:08.682Z,9.43
2017-11-19T12:24:38.062Z,9.44
2017-11-19T12:27:05.561Z,11.01
2017-11-19T12:29:36.191Z,10.40
2017-11-19T12:32:03.699Z,11.82
2017-11-19T12:34:35.042Z,13.32
2017-11-19T12:37:02.569Z,13.91
2017-11-19T12:39:31.215Z,14.00
2017-11-19T12:41:58.740Z,10.27
2017-11-19T12:44:26.579Z,10.34
2017-11-19T12:46:54.469Z,9.77
2017-11-19T12:49:21.975Z,8.59
2017-11-19T12:51:49.486Z,8.35
2017-11-19T12:54:16.997Z,7.63
2017-11-19T12:56:45.544Z,7.90
2017-11-19T12:59:17.454Z,7.90
2017-11-19T13:01:45.292Z,7.81
2017-11-19T13:04:15.598Z,8.22
2017-11-19T13:06:48.691Z,8.77
2017-11-19T13:09:27.657Z,8.19
2017-11-19T13:12:02.872Z,8.37
2017-11-19T13:14:34.377Z,8.01
2017-11-19T13:17:08.712Z,7.63
2017-11-19T13:19:42.726Z,8.05
2017-11-19T13:22:10.241Z,7.55
2017-11-19T13:24:37.776Z,7.79
2017-11-19T13:27:05.284Z,6.81
2017-11-19T13:30:07.377Z,7.12
2017-11-19T13:32:34.899Z,6.96
2017-11-19T13:35:02.425Z,8.44
2017-11-19T13:37:29.913Z,9.12
2017-11-19T13:43:44.058Z,7.83
2017-11-19T13:46:11.570Z,8.30
2017-11-19T13:48:39.078Z,7.72
2017-11-19T13:51:06.574Z,7.91
2017-11-19T13:56:50.021Z,7.47
2017-11-19T13:59:17.535Z,7.10
2017-11-19T14:01:45.043Z,7.40
2017-11-19T14:04:12.555Z,6.87
2017-11-19T14:06:40.062Z,6.99
2017-11-19T14:09:07.589Z,6.52
2017-11-19T14:11:35.108Z,6.53
2017-11-19T14:14:02.623Z,6.64
2017-11-19T14:16:30.129Z,6.57
2017-11-19T14:18:58.043Z,6.36
2017-11-19T14:21:25.549Z,6.52
2017-11-19T14:23:56.172Z,6.65
2017-11-19T14:26:23.750Z,6.41
2017-11-19T14:28:51.269Z,6.48
2017-11-19T14:31:18.827Z,6.46
2017-11-19T14:33:46.327Z,6.47
2017-11-19T14:36:13.820Z,6.60
2017-11-19T14:38:41.345Z,6.38
2017-11-19T14:41:09.050Z,6.19
2017-11-19T14:43:36.564Z,6.19
2017-11-19T14:46:04.060Z,6.29
2017-11-19T14:48:31.557Z,6.09
2017-11-19T14:50:59.060Z,6.04
2017-11-19T14:53:26.562Z,5.89
2017-11-19T14:55:54.089Z,5.89
2017-11-19T14:58:21.618Z,6.12
2017-11-19T15:00:49.122Z,6.17
2017-11-19T15:03:16.624Z,6.01
2017-11-19T15:05:44.125Z,6.27
2017-11-19T15:08:12.180Z,6.17
2017-11-19T15:10:39.709Z,6.24
2017-11-19T15:13:07.408Z,6.18
2017-11-19T15:15:34.976Z,6.14
2017-11-19T15:18:02.497Z,5.92
2017-11-19T15:20:30.254Z,5.95
2017-11-19T15:22:58.113Z,5.83
2017-11-19T15:25:25.634Z,5.79
2017-11-19T15:27:53.217Z,5.75
2017-11-19T15:30:20.766Z,5.79
2017-11-19T15:32:48.403Z,5.76
2017-11-19T15:35:15.942Z,5.80
2017-11-19T15:37:43.451Z,5.71
2017-11-19T15:40:10.964Z,5.66
2017-11-19T15:42:38.501Z,5.55
2017-11-19T15:45:06.007Z,5.52
2017-11-19T15:47:33.506Z,5.55
2017-11-19T15:50:01.200Z,5.47
2017-11-19T15:52:28.704Z,5.50
2017-11-19T15:54:56.235Z,5.41
2017-11-19T15:57:23.758Z,5.28
2017-11-19T15:59:51.265Z,5.27
2017-11-19T16:02:18.840Z,5.25
2017-11-19T16:04:46.332Z,5.33
2017-11-19T16:07:16.389Z,5.40
2017-11-19T16:09:43.899Z,5.47
2017-11-19T16:12:14.053Z,5.53
2017-11-19T16:14:41.570Z,5.26
2017-11-19T16:17:09.112Z,5.21
2017-11-19T16:19:39.411Z,5.11
2017-11-19T16:22:06.950Z,5.25
2017-11-19T16:24:36.830Z,5.28
2017-11-19T16:27:04.734Z,5.04
2017-11-19T16:29:34.115Z,5.00
2017-11-19T16:32:02.729Z,5.04
2017-11-19T16:34:31.011Z,5.10
2017-11-19T16:37:00.178Z,4.99
2017-11-19T16:39:28.183Z,4.96
2017-11-19T16:41:57.473Z,4.83
2017-11-19T16:44:25.273Z,4.76
2017-11-19T16:46:55.177Z,4.67
2017-11-19T16:49:22.703Z,4.50
2017-11-19T16:51:53.270Z,3.87
2017-11-19T16:54:20.779Z,4.04
2017-11-19T16:56:51.470Z,4.24
2017-11-19T16:59:19.015Z,4.23
2017-11-19T17:01:49.688Z,4.13
2017-11-19T17:04:19.166Z,4.12
2017-11-19T17:06:46.659Z,4.12
2017-11-19T17:09:17.217Z,4.06
2017-11-19T17:11:44.739Z,4.04
2017-11-19T17:14:15.523Z,4.03
2017-11-19T17:16:43.145Z,4.05
2017-11-19T17:19:12.912Z,3.97
2017-11-19T17:21:41.219Z,3.88
2017-11-19T17:24:10.055Z,3.99
2017-11-19T17:26:38.707Z,3.89
2017-11-19T17:29:07.252Z,3.83
2017-11-19T17:31:36.804Z,3.88
2017-11-19T17:34:04.343Z,3.90
2017-11-19T17:36:36.329Z,3.93
2017-11-19T17:39:07.200Z,3.90
2017-11-19T17:41:34.739Z,3.93
2017-11-19T17:44:05.106Z,3.87
2017-11-19T17:46:32.715Z,3.97
2017-11-19T17:49:03.836Z,3.86
2017-11-19T17:51:31.370Z,3.85
2017-11-19T17:54:01.595Z,3.89
2017-11-19T17:56:29.287Z,4.01
2017-11-19T17:58:58.418Z,4.13
2017-11-19T18:01:26.665Z,4.11
2017-11-19T18:03:55.563Z,4.31
2017-11-19T18:06:24.327Z,4.31
2017-11-19T18:08:52.725Z,3.86
2017-11-19T18:11:22.113Z,4.05
2017-11-19T18:13:50.081Z,3.86
2017-11-19T18:16:20.338Z,4.12
2017-11-19T18:18:47.863Z,4.03
2017-11-19T18:21:18.919Z,3.85
2017-11-19T18:23:46.444Z,2.90
2017-11-19T18:26:16.304Z,3.07
2017-11-19T18:28:43.927Z,3.24
2017-11-19T18:31:12.377Z,3.35
2017-11-19T18:33:40.156Z,3.32
2017-11-19T18:36:08.970Z,3.68
2017-11-19T18:38:36.509Z,3.30
2017-11-19T18:41:06.342Z,3.35
2017-11-19T18:43:34.616Z,3.42
2017-11-19T18:46:06.171Z,3.40
2017-11-19T18:48:33.690Z,3.59
2017-11-19T18:51:03.481Z,3.43
2017-11-19T18:53:32.856Z,3.49
2017-11-19T18:56:01.210Z,3.51
2017-11-19T18:58:29.871Z,3.56
2017-11-19T19:00:58.276Z,3.53
2017-11-19T19:03:27.379Z,3.49
2017-11-19T19:05:55.261Z,3.41
2017-11-19T19:08:24.932Z,3.42
2017-11-19T19:10:52.492Z,3.48
2017-11-19T19:13:22.666Z,3.52
2017-11-19T19:15:50.171Z,3.34
2017-11-19T19:18:21.210Z,3.27
2017-11-19T19:20:48.761Z,3.42
2017-11-19T19:23:19.454Z,3.33
2017-11-19T19:25:46.977Z,3.39
2017-11-19T19:28:14.622Z,3.22
2017-11-19T19:30:42.109Z,3.48
2017-11-19T19:33:09.617Z,3.42
2017-11-19T19:35:37.105Z,3.24
2017-11-19T19:38:05.598Z,3.33
2017-11-19T19:40:33.118Z,3.49
2017-11-19T19:43:00.660Z,3.65
2017-11-19T19:45:28.341Z,3.64
2017-11-19T19:51:16.657Z,3.75
2017-11-19T19:53:44.164Z,3.69
2017-11-19T19:56:11.725Z,3.85
2017-11-19T20:58:57.721Z,4.06
2017-11-19T21:01:25.240Z,3.93
2017-11-19T21:03:52.828Z,3.99
2017-11-19T21:06:20.326Z,4.14
2017-11-19T21:08:47.844Z,3.96
2017-11-19T21:11:15.388Z,4.00
2017-11-19T21:13:42.898Z,4.08
2017-11-19T21:16:10.505Z,4.06
2017-11-19T21:18:38.121Z,4.08
2017-11-19T21:21:05.657Z,4.00
2017-11-19T21:23:33.170Z,4.17
2017-11-19T21:26:00.688Z,4.06
2017-11-19T21:28:28.302Z,4.14
2017-11-19T21:30:55.865Z,4.21
2017-11-19T21:33:23.526Z,4.29
2017-11-19T21:35:51.066Z,4.12
2017-11-19T21:38:18.691Z,4.06
2017-11-19T21:40:46.215Z,4.19
2017-11-19T21:43:13.708Z,4.16
2017-11-19T21:45:41.232Z,4.18
2017-11-19T21:48:08.756Z,4.28
2017-11-19T21:50:36.270Z,4.13
2017-11-19T21:53:03.826Z,4.16
2017-11-19T21:55:31.338Z,4.06
2017-11-19T21:57:58.851Z,4.13
2017-11-19T22:00:26.357Z,4.16
2017-11-19T22:02:53.871Z,4.19
2017-11-19T22:05:21.411Z,4.17
2017-11-19T22:07:48.908Z,4.13
2017-11-19T22:10:16.409Z,4.17
2017-11-19T22:12:43.941Z,4.11
2017-11-19T22:15:51.881Z,4.05
2017-11-19T22:18:19.375Z,4.13
2017-11-19T22:20:46.904Z,4.05
2017-11-19T22:23:14.430Z,4.17
2017-11-19T22:25:41.941Z,4.21
2017-11-19T22:28:09.434Z,4.20
2017-11-19T22:30:37.280Z,4.24
2017-11-19T22:33:04.782Z,4.25
2017-11-19T22:35:32.288Z,4.31
2017-11-19T22:37:59.887Z,4.31
2017-11-19T22:40:27.392Z,4.24
2017-11-19T22:42:59.664Z,4.28
2017-11-19T22:45:31.431Z,4.33
2017-11-19T22:48:02.636Z,4.27
2017-11-19T22:50:32.127Z,4.15
2017-11-19T22:53:01.881Z,4.34
2017-11-19T22:55:34.293Z,4.16
2017-11-19T22:58:06.387Z,4.06
2017-11-19T23:00:38.505Z,4.13
2017-11-19T23:03:08.741Z,4.14
2017-11-19T23:05:37.718Z,4.26
2017-11-19T23:08:08.179Z,4.13
2017-11-19T23:10:38.782Z,4.20
2017-11-19T23:13:07.838Z,4.24
2017-11-19T23:15:36.589Z,4.10
2017-11-19T23:18:08.025Z,4.12
2017-11-19T23:20:40.457Z,4.07
2017-11-19T23:23:09.333Z,4.05
2017-11-19T23:25:39.848Z,4.10
2017-11-19T23:28:11.023Z,4.05
2017-11-19T23:30:42.016Z,4.06
2017-11-19T23:33:13.469Z,4.05
2017-11-19T23:35:45.217Z,4.05
2017-11-19T23:38:15.040Z,4.01
2017-11-19T23:40:45.015Z,4.06
2017-11-19T23:43:15.129Z,4.09
2017-11-19T23:45:46.366Z,4.06
2017-11-19T23:48:17.118Z,4.08
2017-11-19T23:50:48.022Z,4.07
2017-11-19T23:53:19.877Z,4.15
2017-11-19T23:55:51.347Z,4.13
2017-11-19T23:58:21.926Z,4.12
